Miles City, MT

12:26 AM MST on December 19, 2014 (GMT -0700)
Jordan | Change Station
CLOSE
Current Station
Airport
Location: Jordan,
Elevation: 2661 ft
Nearby Weather Stations

Elev 2661 ft 47.33 °N, 106.95 °W | Updated 38 minutes ago

Clear
Clear
28 °F
Feels Like 19 °F
N
10
Wind Variable Wind from WNW
Gusts 10 mph

Today
High -- | Low -- °F
--% Chance of Precip.
Yesterday
High -- | Low -- °F
Precip. -- in
7:42 AM 4:18 PM
Waning Crescent, 9% visible
Pressure 29.99 in
Visibility -9999.0 miles
Clouds
Windchill 19 °F
Dew Point 25 °F
Humidity 88%
Rainfall 0.00 in
Snow Depth Not available.
UV Not available.
Pollen .10 out of 12
Air Quality Not available.
Flu Activity Not available.
METAR KJDN 190648Z AUTO 29009KT M02/M04 A2991 RMK AO1 SLP156 T10221039 400721089

More Conditions Fewer Conditions

Pressure 29.99 in
Visibility -9999.0 miles
Clouds
Windchill 19 °F
Dew Point 25 °F
Humidity 88%
Rainfall 0.00 in
Snow Depth Not available.
UV Not available.
Pollen .10 out of 12
Air Quality Not available.
Flu Activity Not available.
METAR KJDN 190648Z AUTO 29009KT M02/M04 A2991 RMK AO1 SLP156 T10221039 400721089

More Conditions Fewer Conditions

10-Day Weather Forecast

Almanac

Astronomy

Dec. 19, 2014 Rise Set
Actual Time
Civil Twilight
Nautical Twilight
Astronomical Twilight
Moon
Length of Visible Light
Length of Day
Tomorrow will be .
, % of the Moon is Illuminated

Today's Extremes

State Highs State Lows

Community

WunderPhotos

Upload Photos

1,778,952 photos uploaded!

WunderBlogs® & News

Nearby

Air Quality

  Air Quality AQ Index Pollutant
Not available.

Snow Depth

Station Depth Elevation

Earthquake Activity

City Distance Mag. Time & Date
Minimum magnitude displayed is 2.5.

Coastal Water Temperatures

Place Temperature

Nearby Weather Stations